DXXX/LFW METAR and TAF weather

Enter ICAO airport designator
Station Type Date Time Source
DXXX METAR 2019/12/12 12:00 UTC NOAA

DXXX 121200Z 20008KT 160V220 9999 FEW015 32/25 Q1011 NOSIG


Station Type Date Time Source
DXXX Decoded METAR 2019/12/12 12:00 UTC NOAA

Lome, Togo (DXXX) 06-10N 001-15E 25M
Dec 12, 2019 - 07:00 AM EST / 2019.12.12 1200 UTC
Wind: from the SSW (200 degrees) at 9 MPH (8 KT) (direction variable):0
Visibility: greater than 7 mile(s):0
Sky conditions: mostly clear
Temperature: 89 F (32 C)
Heat index: 100.6 F (38.1 C):1
Dew Point: 77 F (25 C)
Relative Humidity: 66%
Pressure (altimeter): 29.85 in. Hg (1011 hPa)
ob: DXXX 121200Z 20008KT 160V220 9999 FEW015 32/25 Q1011 NOSIG
cycle: 12

Station Type Date Time Source
DXXX TAF 2019/12/12 12:21 UTC NOAA

TAF DXXX 121100Z 1212/1318 20010KT 9999 FEW015
BECMG 1208/1210 20010KT PROB30
TEMPO 1215/1220 TS BKN012 FEW020CB
BECMG 1222/1224 26005KT
BECMG 1308/1310 20010KT

Example: see airport list